createdAt,value
2017-04-16T00:01:15.079Z,22.1
2017-04-16T00:02:15.001Z,21.95
2017-04-16T00:03:14.941Z,21.99
2017-04-16T00:04:14.874Z,22.06
2017-04-16T00:05:14.810Z,22.02
2017-04-16T00:06:14.753Z,22
2017-04-16T00:07:14.689Z,22.02
2017-04-16T00:08:14.621Z,22
2017-04-16T00:09:14.560Z,21.99
2017-04-16T00:10:14.493Z,22
2017-04-16T00:11:14.436Z,22.07
2017-04-16T00:12:14.375Z,21.98
2017-04-16T00:13:14.312Z,22.1
2017-04-16T00:14:14.242Z,21.98
2017-04-16T00:15:14.179Z,22.04
2017-04-16T00:16:14.120Z,22.1
2017-04-16T00:17:14.053Z,22.02
2017-04-16T00:18:14.170Z,21.98
2017-04-16T00:19:13.923Z,22.02
2017-04-16T00:20:13.862Z,21.99
2017-04-16T00:21:13.799Z,21.96
2017-04-16T00:22:13.734Z,21.99
2017-04-16T00:23:13.674Z,22.08
2017-04-16T00:24:13.606Z,22.04
2017-04-16T00:25:13.549Z,22.02
2017-04-16T00:26:13.482Z,22
2017-04-16T00:27:13.421Z,21.99
2017-04-16T00:28:13.354Z,21.98
2017-04-16T00:29:13.293Z,22
2017-04-16T00:30:13.227Z,22.06
2017-04-16T00:31:13.165Z,22
2017-04-16T00:32:13.103Z,22.04
2017-04-16T00:33:13.038Z,21.99
2017-04-16T00:34:12.978Z,21.96
2017-04-16T00:35:12.912Z,21.98
2017-04-16T00:36:12.849Z,22
2017-04-16T00:37:12.782Z,22
2017-04-16T00:38:12.738Z,22.04
2017-04-16T00:39:12.662Z,21.98
2017-04-16T00:40:12.596Z,22
2017-04-16T00:41:12.532Z,21.96
2017-04-16T00:42:12.467Z,22.04
2017-04-16T00:43:12.408Z,22.04
2017-04-16T00:44:12.045Z,21.95
2017-04-16T00:45:12.280Z,21.95
2017-04-16T00:46:12.215Z,22.02
2017-04-16T00:47:12.150Z,22
2017-04-16T00:48:12.093Z,21.99
2017-04-16T00:49:12.025Z,21.99
2017-04-16T00:50:11.664Z,21.98
2017-04-16T00:51:11.899Z,22.02
2017-04-16T00:52:11.534Z,22
2017-04-16T00:53:11.776Z,21.95
2017-04-16T00:54:11.709Z,21.99
2017-04-16T00:55:11.643Z,22.04
2017-04-16T00:56:11.281Z,21.99
2017-04-16T00:57:11.518Z,22.02
2017-04-16T00:58:11.457Z,21.98
2017-04-16T00:59:11.394Z,21.99
2017-04-16T01:00:11.032Z,22.02
2017-04-16T01:01:11.265Z,21.98
2017-04-16T01:02:11.202Z,21.99
2017-04-16T01:03:11.391Z,22.07
2017-04-16T01:04:11.078Z,21.98
2017-04-16T01:05:11.011Z,21.96
2017-04-16T01:06:10.953Z,21.98
2017-04-16T01:07:10.895Z,22.07
2017-04-16T01:08:11.091Z,22.06
2017-04-16T01:09:10.803Z,21.95
2017-04-16T01:10:10.696Z,21.96
2017-04-16T01:11:10.634Z,21.99
2017-04-16T01:12:10.569Z,21.99
2017-04-16T01:13:10.755Z,21.96
2017-04-16T01:14:10.442Z,22.02
2017-04-16T01:15:10.379Z,21.99
2017-04-16T01:16:10.324Z,21.98
2017-04-16T01:17:09.951Z,21.99
2017-04-16T01:18:09.888Z,21.99
2017-04-16T01:19:10.124Z,22
2017-04-16T01:20:10.083Z,21.98
2017-04-16T01:21:10.176Z,22.06
2017-04-16T01:22:09.938Z,21.98
2017-04-16T01:23:09.871Z,21.95
2017-04-16T01:24:09.814Z,22.04
2017-04-16T01:25:09.760Z,21.95
2017-04-16T01:26:09.678Z,21.98
2017-04-16T01:27:09.621Z,22.04
2017-04-16T01:28:09.558Z,21.98
2017-04-16T01:29:09.496Z,21.98
2017-04-16T01:30:09.427Z,21.98
2017-04-16T01:31:09.369Z,21.96
2017-04-16T01:32:09.302Z,21.96
2017-04-16T01:33:09.237Z,22.02
2017-04-16T01:34:09.426Z,21.96
2017-04-16T01:35:09.115Z,22
2017-04-16T01:36:09.052Z,21.96
2017-04-16T01:37:09.010Z,21.95
2017-04-16T01:38:08.640Z,21.95
2017-04-16T01:39:09.119Z,22.07
2017-04-16T01:40:08.496Z,21.98
2017-04-16T01:41:08.733Z,21.95
2017-04-16T01:42:08.671Z,22.07
2017-04-16T01:43:08.603Z,21.95
2017-04-16T01:44:08.565Z,22.04
2017-04-16T01:45:08.488Z,21.95
2017-04-16T01:46:08.422Z,21.95
2017-04-16T01:47:08.351Z,22.04
2017-04-16T01:48:08.291Z,21.92
2017-04-16T01:49:08.339Z,21.95
2017-04-16T01:50:07.861Z,21.95
2017-04-16T01:51:08.096Z,21.95
2017-04-16T01:52:07.736Z,21.91
2017-04-16T01:53:07.976Z,21.95
2017-04-16T01:54:07.906Z,21.96
2017-04-16T01:55:07.849Z,21.93
2017-04-16T01:56:07.781Z,21.95
2017-04-16T01:57:07.419Z,21.98
2017-04-16T01:58:07.658Z,21.98
2017-04-16T01:59:07.591Z,22
2017-04-16T02:00:07.534Z,22
2017-04-16T02:01:07.467Z,21.95
2017-04-16T02:02:07.425Z,21.98
2017-04-16T02:03:07.343Z,21.98
2017-04-16T02:04:07.274Z,21.92
2017-04-16T02:05:07.311Z,22.04
2017-04-16T02:06:07.148Z,21.96
2017-04-16T02:07:07.084Z,21.95
2017-04-16T02:08:07.025Z,21.95
2017-04-16T02:09:06.965Z,21.98
2017-04-16T02:10:06.898Z,21.93
2017-04-16T02:11:06.834Z,22.02
2017-04-16T02:12:06.774Z,21.95
2017-04-16T02:13:06.708Z,21.92
2017-04-16T02:14:06.643Z,22.04
2017-04-16T02:15:06.606Z,21.98
2017-04-16T02:16:06.516Z,22
2017-04-16T02:17:06.449Z,21.95
2017-04-16T02:18:06.391Z,21.93
2017-04-16T02:19:06.321Z,21.95
2017-04-16T02:20:06.260Z,21.88
2017-04-16T02:21:06.196Z,21.98
2017-04-16T02:22:06.135Z,21.89
2017-04-16T02:23:06.170Z,21.91
2017-04-16T02:24:06.036Z,21.98
2017-04-16T02:25:05.793Z,21.96
2017-04-16T02:26:05.879Z,21.92
2017-04-16T02:27:05.817Z,21.95
2017-04-16T02:28:05.751Z,21.93
2017-04-16T02:29:05.691Z,21.98
2017-04-16T02:30:05.625Z,22.02
2017-04-16T02:31:05.562Z,21.98
2017-04-16T02:32:05.499Z,21.95
2017-04-16T02:33:05.439Z,21.96
2017-04-16T02:34:05.545Z,21.96
2017-04-16T02:35:05.313Z,21.96
2017-04-16T02:36:04.962Z,21.93
2017-04-16T02:37:05.186Z,22
2017-04-16T02:38:05.126Z,21.93
2017-04-16T02:39:05.068Z,21.98
2017-04-16T02:40:05.012Z,21.98
2017-04-16T02:41:04.930Z,21.95
2017-04-16T02:42:04.883Z,21.93
2017-04-16T02:43:04.804Z,21.96
2017-04-16T02:44:04.753Z,21.99
2017-04-16T02:45:04.691Z,21.91
2017-04-16T02:46:04.623Z,21.91
2017-04-16T02:47:04.563Z,21.95
2017-04-16T02:48:04.199Z,21.95
2017-04-16T02:49:04.427Z,21.91
2017-04-16T02:50:04.359Z,21.95
2017-04-16T02:51:04.306Z,21.96
2017-04-16T02:52:04.233Z,22
2017-04-16T02:53:04.180Z,21.98
2017-04-16T02:54:04.115Z,21.95
2017-04-16T02:55:04.041Z,21.92
2017-04-16T02:56:03.983Z,21.95
2017-04-16T02:57:03.916Z,21.93
2017-04-16T02:58:03.854Z,21.95
2017-04-16T02:59:03.795Z,21.91
2017-04-16T03:00:03.726Z,21.98
2017-04-16T03:01:03.660Z,21.96
2017-04-16T03:02:03.598Z,22
2017-04-16T03:03:03.534Z,22
2017-04-16T03:04:03.475Z,21.98
2017-04-16T03:05:03.417Z,21.95
2017-04-16T03:06:03.050Z,21.96
2017-04-16T03:07:03.284Z,21.99
2017-04-16T03:08:03.224Z,21.93
2017-04-16T03:09:03.153Z,21.95
2017-04-16T03:10:03.109Z,21.85
2017-04-16T03:11:03.026Z,21.99
2017-04-16T03:12:02.967Z,21.96
2017-04-16T03:13:02.903Z,21.91
2017-04-16T03:14:02.838Z,21.91
2017-04-16T03:15:02.777Z,21.92
2017-04-16T03:16:02.719Z,21.99
2017-04-16T03:17:02.648Z,21.92
2017-04-16T03:18:02.596Z,21.96
2017-04-16T03:19:02.522Z,21.99
2017-04-16T03:20:02.461Z,21.99
2017-04-16T03:21:02.393Z,21.92
2017-04-16T03:22:02.330Z,21.96
2017-04-16T03:23:02.269Z,21.99
2017-04-16T03:24:02.205Z,21.88
2017-04-16T03:25:02.143Z,21.88
2017-04-16T03:26:02.077Z,21.96
2017-04-16T03:27:02.015Z,21.92
2017-04-16T03:28:01.951Z,21.89
2017-04-16T03:29:01.889Z,21.96
2017-04-16T03:30:01.827Z,21.92
2017-04-16T03:31:01.763Z,21.91
2017-04-16T03:32:01.706Z,21.98
2017-04-16T03:33:01.633Z,21.95
2017-04-16T03:34:01.575Z,21.96
2017-04-16T03:35:01.763Z,21.95
2017-04-16T03:36:01.444Z,21.95
2017-04-16T03:37:01.378Z,21.95
2017-04-16T03:38:01.317Z,21.92
2017-04-16T03:39:01.253Z,21.95
2017-04-16T03:40:01.187Z,21.93
2017-04-16T03:41:01.126Z,21.91
2017-04-16T03:42:01.061Z,21.93
2017-04-16T03:43:01.000Z,21.93
2017-04-16T03:44:00.937Z,21.93
2017-04-16T03:45:00.873Z,21.92
2017-04-16T03:46:00.817Z,21.95
2017-04-16T03:47:00.742Z,21.93
2017-04-16T03:48:00.695Z,21.93
2017-04-16T03:49:00.626Z,21.89
2017-04-16T03:50:00.556Z,21.93
2017-04-16T03:51:00.494Z,21.96
2017-04-16T03:52:00.475Z,21.96
2017-04-16T03:53:00.366Z,21.92
2017-04-16T03:54:00.299Z,21.91
2017-04-16T03:55:00.242Z,21.99
2017-04-16T03:56:00.175Z,21.89
2017-04-16T03:57:00.117Z,21.93
2017-04-16T03:58:00.050Z,21.92
2017-04-16T03:59:00.023Z,21.92
2017-04-16T03:59:59.922Z,21.92
2017-04-16T04:00:59.557Z,21.93
2017-04-16T04:01:59.796Z,21.93
2017-04-16T04:02:59.731Z,21.93
2017-04-16T04:03:59.669Z,21.92
2017-04-16T04:04:59.615Z,21.91
2017-04-16T04:05:59.539Z,21.95
2017-04-16T04:06:59.479Z,21.95
2017-04-16T04:07:59.412Z,21.95
2017-04-16T04:08:59.348Z,21.92
2017-04-16T04:09:59.289Z,21.91
2017-04-16T04:10:59.223Z,21.96
2017-04-16T04:11:59.159Z,21.89
2017-04-16T04:12:59.095Z,21.92
2017-04-16T04:13:59.034Z,21.95
2017-04-16T04:14:58.970Z,21.93
2017-04-16T04:15:58.605Z,21.92
2017-04-16T04:16:58.844Z,21.93
2017-04-16T04:17:58.778Z,21.88
2017-04-16T04:18:58.716Z,21.91
2017-04-16T04:19:58.651Z,21.92
2017-04-16T04:20:58.587Z,21.92
2017-04-16T04:21:58.536Z,21.91
2017-04-16T04:22:58.464Z,21.89
2017-04-16T04:23:58.399Z,21.91
2017-04-16T04:24:58.338Z,21.95
2017-04-16T04:25:58.273Z,21.96
2017-04-16T04:26:58.308Z,21.96
2017-04-16T04:27:57.845Z,21.91
2017-04-16T04:28:57.790Z,21.98
2017-04-16T04:29:58.021Z,21.93
2017-04-16T04:30:57.956Z,21.99
2017-04-16T04:31:57.890Z,21.93
2017-04-16T04:32:57.828Z,21.89
2017-04-16T04:33:57.768Z,21.89
2017-04-16T04:34:57.705Z,21.92
2017-04-16T04:35:57.638Z,21.96
2017-04-16T04:36:57.598Z,21.89
2017-04-16T04:37:57.512Z,21.95
2017-04-16T04:38:57.455Z,21.89
2017-04-16T04:39:57.387Z,21.88
2017-04-16T04:40:57.323Z,21.99
2017-04-16T04:41:57.255Z,21.96
2017-04-16T04:42:57.197Z,21.93
2017-04-16T04:43:57.129Z,21.88
2017-04-16T04:44:57.066Z,21.99
2017-04-16T04:45:57.107Z,21.88
2017-04-16T04:46:56.638Z,21.93
2017-04-16T04:47:56.881Z,21.92
2017-04-16T04:48:56.811Z,21.96
2017-04-16T04:49:56.453Z,21.89
2017-04-16T04:50:56.686Z,21.92
2017-04-16T04:51:56.621Z,21.93
2017-04-16T04:52:56.568Z,21.93
2017-04-16T04:53:56.494Z,21.89
2017-04-16T04:54:56.431Z,21.96
2017-04-16T04:55:56.069Z,21.96
2017-04-16T04:56:56.310Z,21.91
2017-04-16T04:57:56.246Z,21.96
2017-04-16T04:58:56.186Z,21.89
2017-04-16T04:59:56.114Z,21.83
2017-04-16T05:00:56.189Z,21.95
2017-04-16T05:01:55.986Z,21.91
2017-04-16T05:02:55.930Z,21.95
2017-04-16T05:03:55.865Z,21.89
2017-04-16T05:04:55.799Z,21.95
2017-04-16T05:05:55.440Z,21.92
2017-04-16T05:06:55.669Z,21.93
2017-04-16T05:07:55.315Z,21.89
2017-04-16T05:08:55.544Z,21.89
2017-04-16T05:09:55.533Z,21.93
2017-04-16T05:10:55.116Z,21.93
2017-04-16T05:11:55.354Z,21.98
2017-04-16T05:12:54.993Z,21.95
2017-04-16T05:13:55.230Z,21.99
2017-04-16T05:14:55.165Z,21.98
2017-04-16T05:15:55.102Z,21.91
2017-04-16T05:16:55.036Z,21.89
2017-04-16T05:17:54.974Z,21.92
2017-04-16T05:18:54.913Z,21.89
2017-04-16T05:19:54.847Z,21.91
2017-04-16T05:20:54.782Z,21.93
2017-04-16T05:21:54.721Z,21.89
2017-04-16T05:22:54.654Z,21.91
2017-04-16T05:23:54.593Z,21.91
2017-04-16T05:24:54.531Z,21.95
2017-04-16T05:25:54.464Z,21.89
2017-04-16T05:26:54.402Z,21.91
2017-04-16T05:27:54.341Z,21.93
2017-04-16T05:28:54.275Z,21.91
2017-04-16T05:29:54.216Z,21.96
2017-04-16T05:30:54.147Z,21.95
2017-04-16T05:31:54.084Z,21.88
2017-04-16T05:32:54.024Z,21.93
2017-04-16T05:33:53.960Z,21.96
2017-04-16T05:34:53.896Z,21.93
2017-04-16T05:35:53.832Z,21.85
2017-04-16T05:36:53.768Z,21.93
2017-04-16T05:37:53.714Z,21.91
2017-04-16T05:38:53.643Z,21.92
2017-04-16T05:39:53.575Z,21.93
2017-04-16T05:40:53.521Z,21.91
2017-04-16T05:41:53.456Z,21.88
2017-04-16T05:42:53.392Z,21.98
2017-04-16T05:43:53.324Z,21.95
2017-04-16T05:44:53.265Z,21.92
2017-04-16T05:45:53.199Z,21.92
2017-04-16T05:46:53.133Z,21.85
2017-04-16T05:47:53.071Z,21.91
2017-04-16T05:48:53.011Z,21.92
2017-04-16T05:49:52.948Z,21.85
2017-04-16T05:50:52.881Z,21.95
2017-04-16T05:51:52.817Z,21.85
2017-04-16T05:52:52.459Z,21.96
2017-04-16T05:53:52.699Z,21.95
2017-04-16T05:54:52.661Z,21.88
2017-04-16T05:55:52.568Z,22.02
2017-04-16T05:56:52.504Z,21.89
2017-04-16T05:57:52.441Z,21.89
2017-04-16T05:58:52.373Z,21.96
2017-04-16T05:59:52.311Z,21.88
2017-04-16T06:00:52.247Z,21.88
2017-04-16T06:01:52.180Z,21.92
2017-04-16T06:02:52.119Z,21.98
2017-04-16T06:03:52.057Z,21.92
2017-04-16T06:04:51.991Z,21.88
2017-04-16T06:05:51.931Z,21.96
2017-04-16T06:06:51.864Z,21.96
2017-04-16T06:07:51.804Z,21.92
2017-04-16T06:08:51.744Z,21.91
2017-04-16T06:09:51.678Z,21.92
2017-04-16T06:10:51.611Z,21.88
2017-04-16T06:11:51.549Z,21.89
2017-04-16T06:12:51.487Z,21.91
2017-04-16T06:13:51.425Z,21.88
2017-04-16T06:14:51.356Z,21.91
2017-04-16T06:15:51.294Z,21.89
2017-04-16T06:16:51.232Z,21.91
2017-04-16T06:17:51.166Z,21.92
2017-04-16T06:18:51.104Z,21.96
2017-04-16T06:19:51.042Z,21.95
2017-04-16T06:20:50.980Z,21.95
2017-04-16T06:21:50.917Z,21.96
2017-04-16T06:22:50.850Z,21.92
2017-04-16T06:23:50.790Z,21.99
2017-04-16T06:24:50.726Z,21.95
2017-04-16T06:25:50.662Z,21.95
2017-04-16T06:26:50.596Z,21.92
2017-04-16T06:27:50.534Z,21.92
2017-04-16T06:28:50.472Z,21.91
2017-04-16T06:29:50.109Z,21.89
2017-04-16T06:30:50.042Z,21.91
2017-04-16T06:31:50.278Z,21.93
2017-04-16T06:32:50.219Z,21.92
2017-04-16T06:33:50.345Z,21.93
2017-04-16T06:34:50.088Z,21.92
2017-04-16T06:35:50.026Z,21.99
2017-04-16T06:36:49.965Z,21.91
2017-04-16T06:37:49.901Z,21.92
2017-04-16T06:38:49.838Z,21.88
2017-04-16T06:39:49.774Z,21.96
2017-04-16T06:40:49.407Z,21.89
2017-04-16T06:41:49.650Z,21.89
2017-04-16T06:42:49.581Z,21.92
2017-04-16T06:43:49.522Z,21.96
2017-04-16T06:44:49.455Z,21.95
2017-04-16T06:45:49.392Z,21.91
2017-04-16T06:46:49.327Z,21.92
2017-04-16T06:47:49.266Z,21.92
2017-04-16T06:48:49.206Z,21.91
2017-04-16T06:49:49.180Z,21.93
2017-04-16T06:50:49.075Z,21.92
2017-04-16T06:51:49.009Z,21.91
2017-04-16T06:52:48.948Z,21.95
2017-04-16T06:53:48.587Z,21.89
2017-04-16T06:54:48.844Z,21.98
2017-04-16T06:55:48.771Z,21.96
2017-04-16T06:56:48.693Z,21.91
2017-04-16T06:57:48.634Z,21.92
2017-04-16T06:58:48.569Z,21.88
2017-04-16T06:59:48.506Z,21.98
2017-04-16T07:00:48.442Z,21.92
2017-04-16T07:01:48.375Z,21.93
2017-04-16T07:02:48.316Z,21.93
2017-04-16T07:03:48.249Z,21.88
2017-04-16T07:04:48.185Z,21.96
2017-04-16T07:05:48.133Z,21.93
2017-04-16T07:06:48.059Z,21.89
2017-04-16T07:07:47.994Z,21.89
2017-04-16T07:08:47.935Z,22
2017-04-16T07:09:47.868Z,21.89
2017-04-16T07:10:47.806Z,21.89
2017-04-16T07:11:47.750Z,21.91
2017-04-16T07:12:47.681Z,21.88
2017-04-16T07:13:47.618Z,21.96
2017-04-16T07:14:47.562Z,21.92
2017-04-16T07:15:47.486Z,21.91
2017-04-16T07:16:47.427Z,21.95
2017-04-16T07:17:47.360Z,21.85
2017-04-16T07:18:47.299Z,21.92
2017-04-16T07:19:47.235Z,21.91
2017-04-16T07:20:47.171Z,21.89
2017-04-16T07:21:47.107Z,21.92
2017-04-16T07:22:47.045Z,21.92
2017-04-16T07:23:46.983Z,21.91
2017-04-16T07:24:46.930Z,21.93
2017-04-16T07:25:46.570Z,21.93
2017-04-16T07:26:46.802Z,21.93
2017-04-16T07:27:46.729Z,21.85
2017-04-16T07:28:46.673Z,21.93
2017-04-16T07:29:46.605Z,21.96
2017-04-16T07:30:46.535Z,21.92
2017-04-16T07:31:46.474Z,21.95
2017-04-16T07:32:46.413Z,21.92
2017-04-16T07:33:46.348Z,21.92
2017-04-16T07:34:46.282Z,21.89
2017-04-16T07:35:46.217Z,21.93
2017-04-16T07:36:46.156Z,21.95
2017-04-16T07:37:46.093Z,21.92
2017-04-16T07:38:46.031Z,21.91
2017-04-16T07:39:45.965Z,21.96
2017-04-16T07:40:45.901Z,21.92
2017-04-16T07:41:45.836Z,21.89
2017-04-16T07:42:45.478Z,21.91
2017-04-16T07:43:45.416Z,21.92
2017-04-16T07:44:45.645Z,21.96
2017-04-16T07:45:45.587Z,21.91
2017-04-16T07:46:45.522Z,21.91
2017-04-16T07:47:45.459Z,21.91
2017-04-16T07:48:45.393Z,22
2017-04-16T07:49:45.330Z,21.92
2017-04-16T07:50:45.269Z,21.92
2017-04-16T07:51:45.204Z,21.91
2017-04-16T07:52:44.841Z,21.89
2017-04-16T07:53:45.080Z,21.93
2017-04-16T07:54:45.012Z,21.92
2017-04-16T07:55:45.047Z,21.96
2017-04-16T07:56:44.885Z,21.93
2017-04-16T07:57:44.824Z,21.96
2017-04-16T07:58:44.762Z,21.95
2017-04-16T07:59:44.397Z,21.89
2017-04-16T08:00:44.639Z,21.96
2017-04-16T08:01:44.573Z,21.93
2017-04-16T08:02:44.518Z,21.91
2017-04-16T08:03:44.446Z,21.95
2017-04-16T08:04:44.507Z,21.92
2017-04-16T08:05:44.314Z,21.96
2017-04-16T08:06:43.954Z,21.92
2017-04-16T08:07:44.192Z,22
2017-04-16T08:08:44.126Z,21.98
2017-04-16T08:09:44.061Z,21.89
2017-04-16T08:10:43.997Z,21.92
2017-04-16T08:11:43.935Z,21.92
2017-04-16T08:12:43.881Z,21.95
2017-04-16T08:13:43.809Z,21.92
2017-04-16T08:14:43.745Z,21.96
2017-04-16T08:15:43.693Z,21.98
2017-04-16T08:16:43.617Z,21.93
2017-04-16T08:17:43.558Z,21.93
2017-04-16T08:18:43.494Z,21.89
2017-04-16T08:19:43.427Z,21.98
2017-04-16T08:20:43.367Z,21.93
2017-04-16T08:21:43.301Z,21.95
2017-04-16T08:22:43.237Z,21.93
2017-04-16T08:23:43.176Z,21.92
2017-04-16T08:24:43.109Z,21.95
2017-04-16T08:25:43.050Z,21.92
2017-04-16T08:26:42.989Z,21.93
2017-04-16T08:27:42.921Z,21.99
2017-04-16T08:28:42.857Z,21.96
2017-04-16T08:29:42.795Z,22
2017-04-16T08:30:42.730Z,21.99
2017-04-16T08:31:42.670Z,21.95
2017-04-16T08:32:42.609Z,21.89
2017-04-16T08:33:42.540Z,21.95
2017-04-16T08:34:42.476Z,21.92
2017-04-16T08:35:42.411Z,21.98
2017-04-16T08:36:42.050Z,21.95
2017-04-16T08:37:42.285Z,21.96
2017-04-16T08:38:41.926Z,21.93
2017-04-16T08:39:42.162Z,21.95
2017-04-16T08:40:42.097Z,21.95
2017-04-16T08:41:42.030Z,21.98
2017-04-16T08:42:41.970Z,21.95
2017-04-16T08:43:41.903Z,21.93
2017-04-16T08:44:41.844Z,21.99
2017-04-16T08:45:41.479Z,21.95
2017-04-16T08:46:41.713Z,21.98
2017-04-16T08:47:41.652Z,21.95
2017-04-16T08:48:41.596Z,21.96
2017-04-16T08:49:41.524Z,21.93
2017-04-16T08:50:41.461Z,21.98
2017-04-16T08:51:41.396Z,21.91
2017-04-16T08:52:41.338Z,21.89
2017-04-16T08:53:41.373Z,21.91
2017-04-16T08:54:41.208Z,21.98
2017-04-16T08:55:41.145Z,21.95
2017-04-16T08:56:41.080Z,21.96
2017-04-16T08:57:41.016Z,21.95
2017-04-16T08:58:40.955Z,21.93
2017-04-16T08:59:40.890Z,21.96
2017-04-16T09:00:40.827Z,22
2017-04-16T09:01:40.767Z,21.95
2017-04-16T09:02:40.703Z,21.99
2017-04-16T09:03:40.639Z,21.98
2017-04-16T09:04:40.574Z,21.99
2017-04-16T09:05:40.514Z,22.02
2017-04-16T09:06:40.445Z,22.04
2017-04-16T09:07:40.396Z,21.91
2017-04-16T09:08:40.319Z,21.95
2017-04-16T09:09:40.260Z,21.92
2017-04-16T09:10:40.208Z,21.93
2017-04-16T09:11:40.127Z,22
2017-04-16T09:12:40.067Z,22.04
2017-04-16T09:13:40.004Z,21.95
2017-04-16T09:14:39.936Z,21.95
2017-04-16T09:15:39.874Z,21.92
2017-04-16T09:16:39.812Z,21.95
2017-04-16T09:17:39.753Z,21.98
2017-04-16T09:18:39.688Z,21.92
2017-04-16T09:19:39.619Z,21.93
2017-04-16T09:20:39.560Z,21.99
2017-04-16T09:21:39.493Z,21.99
2017-04-16T09:22:39.433Z,21.93
2017-04-16T09:23:39.372Z,21.89
2017-04-16T09:24:39.304Z,21.99
2017-04-16T09:25:39.245Z,22.02
2017-04-16T09:26:39.178Z,21.99
2017-04-16T09:27:38.813Z,21.99
2017-04-16T09:28:39.057Z,21.99
2017-04-16T09:29:38.986Z,21.95
2017-04-16T09:30:38.922Z,21.93
2017-04-16T09:31:38.861Z,21.95
2017-04-16T09:32:38.843Z,21.92
2017-04-16T09:33:38.735Z,21.98
2017-04-16T09:34:38.674Z,21.98
2017-04-16T09:35:38.611Z,21.95
2017-04-16T09:36:38.545Z,21.98
2017-04-16T09:37:38.485Z,22.06
2017-04-16T09:38:38.431Z,21.98
2017-04-16T09:39:38.357Z,21.98
2017-04-16T09:40:38.291Z,22.04
2017-04-16T09:41:38.226Z,21.99
2017-04-16T09:42:38.169Z,21.96
2017-04-16T09:43:38.104Z,21.96
2017-04-16T09:44:38.038Z,21.98
2017-04-16T09:45:37.977Z,21.95
2017-04-16T09:46:37.910Z,21.98
2017-04-16T09:47:37.849Z,21.96
2017-04-16T09:48:37.500Z,22
2017-04-16T09:49:37.720Z,21.99
2017-04-16T09:50:37.655Z,21.98
2017-04-16T09:51:37.609Z,21.98
2017-04-16T09:52:37.542Z,22.02
2017-04-16T09:53:37.540Z,22.1
2017-04-16T09:54:37.407Z,22.02
2017-04-16T09:55:37.346Z,21.98
2017-04-16T09:56:37.278Z,22
2017-04-16T09:57:37.227Z,21.99
2017-04-16T09:58:37.154Z,21.99
2017-04-16T09:59:37.085Z,22.06
2017-04-16T10:00:37.249Z,22
2017-04-16T10:01:36.959Z,22
2017-04-16T10:02:36.904Z,22.1
2017-04-16T10:03:36.831Z,22.02
2017-04-16T10:04:36.471Z,22
2017-04-16T10:05:36.706Z,22.02
2017-04-16T10:06:36.643Z,22
2017-04-16T10:07:36.607Z,22.04
2017-04-16T10:08:36.523Z,21.93
2017-04-16T10:09:36.470Z,22
2017-04-16T10:10:36.388Z,22.06
2017-04-16T10:11:36.334Z,22.04
2017-04-16T10:12:36.266Z,21.96
2017-04-16T10:13:36.202Z,22.02
2017-04-16T10:14:35.838Z,22
2017-04-16T10:15:36.083Z,21.98
2017-04-16T10:16:36.011Z,21.98
2017-04-16T10:17:35.943Z,21.96
2017-04-16T10:18:35.888Z,21.98
2017-04-16T10:19:35.818Z,21.98
2017-04-16T10:20:35.755Z,22.02
2017-04-16T10:21:35.691Z,22.04
2017-04-16T10:22:35.630Z,22.04
2017-04-16T10:23:35.265Z,22.02
2017-04-16T10:24:35.503Z,21.99
2017-04-16T10:25:35.437Z,22.07
2017-04-16T10:26:35.378Z,22
2017-04-16T10:27:35.309Z,22.04
2017-04-16T10:28:35.247Z,22.02
2017-04-16T10:29:35.190Z,22.07
2017-04-16T10:30:35.122Z,22.02
2017-04-16T10:31:35.060Z,22.02
2017-04-16T10:32:34.992Z,21.96
2017-04-16T10:33:34.933Z,21.98
2017-04-16T10:34:34.867Z,22
2017-04-16T10:35:34.831Z,22
2017-04-16T10:36:34.740Z,22.04
2017-04-16T10:37:34.677Z,22.06
2017-04-16T10:38:34.613Z,21.98
2017-04-16T10:39:34.553Z,21.99
2017-04-16T10:40:34.487Z,21.96
2017-04-16T10:41:34.427Z,21.99
2017-04-16T10:42:34.359Z,22.02
2017-04-16T10:43:34.297Z,22.06
2017-04-16T10:44:33.934Z,21.99
2017-04-16T10:45:34.169Z,22.06
2017-04-16T10:46:34.108Z,21.99
2017-04-16T10:47:34.053Z,21.96
2017-04-16T10:48:33.981Z,22
2017-04-16T10:49:33.915Z,22.06
2017-04-16T10:50:33.852Z,22.02
2017-04-16T10:51:33.792Z,22.08
2017-04-16T10:52:33.728Z,22.07
2017-04-16T10:53:33.669Z,22.06
2017-04-16T10:54:33.599Z,22.02
2017-04-16T10:55:33.536Z,22.04
2017-04-16T10:56:33.482Z,21.98
2017-04-16T10:57:33.410Z,22.02
2017-04-16T10:58:33.349Z,22
2017-04-16T10:59:33.284Z,22.04
2017-04-16T11:00:33.221Z,22.08
2017-04-16T11:01:33.157Z,22.04
2017-04-16T11:02:33.102Z,22.04
2017-04-16T11:03:33.031Z,22.02
2017-04-16T11:04:32.970Z,21.98
2017-04-16T11:05:32.907Z,22.11
2017-04-16T11:06:32.840Z,22.04
2017-04-16T11:07:32.481Z,22.04
2017-04-16T11:08:32.721Z,22.06
2017-04-16T11:09:32.656Z,22
2017-04-16T11:10:32.591Z,22
2017-04-16T11:11:32.524Z,21.91
2017-04-16T11:12:32.459Z,22.02
2017-04-16T11:13:32.401Z,21.95
2017-04-16T11:14:32.334Z,22.04
2017-04-16T11:15:32.271Z,22.02
2017-04-16T11:16:32.209Z,22.06
2017-04-16T11:17:32.146Z,21.96
2017-04-16T11:18:32.082Z,22.04
2017-04-16T11:19:32.019Z,22.1
2017-04-16T11:20:31.954Z,21.98
2017-04-16T11:21:31.599Z,21.93
2017-04-16T11:22:31.528Z,22.07
2017-04-16T11:23:31.462Z,21.99
2017-04-16T11:24:31.707Z,22.06
2017-04-16T11:25:31.637Z,22.1
2017-04-16T11:26:31.574Z,22.11
2017-04-16T11:27:31.512Z,22.08
2017-04-16T11:28:31.448Z,22
2017-04-16T11:29:31.384Z,21.99
2017-04-16T11:30:31.337Z,22.07
2017-04-16T11:31:31.262Z,22.06
2017-04-16T11:32:31.193Z,22.07
2017-04-16T11:33:31.137Z,22.07
2017-04-16T11:34:31.068Z,22
2017-04-16T11:35:31.005Z,22.06
2017-04-16T11:36:30.950Z,22.1
2017-04-16T11:37:30.887Z,22.11
2017-04-16T11:38:30.815Z,22.15
2017-04-16T11:39:30.754Z,22.02
2017-04-16T11:40:30.708Z,22.04
2017-04-16T11:41:30.635Z,22.11
2017-04-16T11:42:30.561Z,22
2017-04-16T11:43:30.498Z,22.08
2017-04-16T11:44:30.434Z,22.11
2017-04-16T11:45:30.404Z,22.1
2017-04-16T11:46:30.307Z,22.07
2017-04-16T11:47:30.244Z,22.14
2017-04-16T11:48:30.191Z,22.07
2017-04-16T11:49:30.117Z,22.11
2017-04-16T11:50:30.065Z,22.11
2017-04-16T11:51:30.019Z,22.07
2017-04-16T11:52:29.934Z,22.1
2017-04-16T11:53:29.865Z,22.06
2017-04-16T11:54:29.802Z,22.17
2017-04-16T11:55:29.743Z,22.1
2017-04-16T11:56:29.675Z,22.11
2017-04-16T11:57:29.613Z,22.02
2017-04-16T11:58:29.553Z,22.14
2017-04-16T11:59:29.485Z,22.07
2017-04-16T12:00:29.421Z,22.07
2017-04-16T12:01:29.358Z,22.07
2017-04-16T12:02:29.295Z,22.11
2017-04-16T12:03:29.235Z,22.06
2017-04-16T12:04:29.175Z,22.07
2017-04-16T12:05:29.106Z,22.11
2017-04-16T12:06:29.045Z,22.08
2017-04-16T12:07:28.977Z,22.07
2017-04-16T12:08:28.913Z,22.06
2017-04-16T12:09:28.859Z,22.06
2017-04-16T12:10:28.817Z,22.07
2017-04-16T12:11:28.832Z,22.1
2017-04-16T12:12:28.672Z,22.07
2017-04-16T12:13:28.602Z,22.13
2017-04-16T12:14:28.544Z,22.13
2017-04-16T12:15:28.475Z,22.1
2017-04-16T12:16:28.413Z,22.06
2017-04-16T12:17:28.047Z,22.07
2017-04-16T12:18:27.982Z,22.1
2017-04-16T12:19:27.923Z,22.06
2017-04-16T12:20:28.156Z,22.13
2017-04-16T12:21:27.796Z,22.08
2017-04-16T12:22:28.027Z,22.11
2017-04-16T12:23:27.969Z,22.08
2017-04-16T12:24:27.904Z,22.13
2017-04-16T12:25:27.838Z,22.07
2017-04-16T12:26:27.775Z,22.11
2017-04-16T12:27:27.714Z,22.11
2017-04-16T12:28:27.703Z,22.13
2017-04-16T12:29:27.583Z,22.07
2017-04-16T12:30:27.522Z,22
2017-04-16T12:31:27.460Z,22.08
2017-04-16T12:32:27.399Z,22.11
2017-04-16T12:33:27.337Z,22.1
2017-04-16T12:34:27.271Z,22.08
2017-04-16T12:35:27.209Z,22.08
2017-04-16T12:36:27.140Z,22
2017-04-16T12:37:26.918Z,22.1
2017-04-16T12:38:27.017Z,22.13
2017-04-16T12:39:26.959Z,22.08
2017-04-16T12:40:26.898Z,22.1
2017-04-16T12:41:26.831Z,22.11
2017-04-16T12:42:26.762Z,22.11
2017-04-16T12:43:26.715Z,22.08
2017-04-16T12:44:26.645Z,22.08
2017-04-16T12:45:26.573Z,22
2017-04-16T12:46:26.530Z,22.07
2017-04-16T12:47:26.446Z,22.08
2017-04-16T12:48:26.383Z,22.04
2017-04-16T12:49:26.328Z,22.1
2017-04-16T12:50:26.263Z,22.08
2017-04-16T12:51:26.195Z,22.11
2017-04-16T12:52:26.130Z,21.99
2017-04-16T12:53:25.771Z,22.14
2017-04-16T12:54:26.006Z,22.04
2017-04-16T12:55:25.643Z,22.11
2017-04-16T12:56:25.876Z,22.06
2017-04-16T12:57:25.817Z,21.99